sensor_id;sensor_type;location;lat;lon;timestamp;pressure;altitude;pressure_sealevel;temperature;humidity
7754;BME280;3921;42.266;23.122;2023-04-24T00:00:55;95395.97;;;13.10;57.92
7754;BME280;3921;42.266;23.122;2023-04-24T00:03:24;95440.66;;;13.52;58.06
7754;BME280;3921;42.266;23.122;2023-04-24T00:05:53;95376.69;;;13.07;58.15
7754;BME280;3921;42.266;23.122;2023-04-24T00:08:20;95437.31;;;13.53;58.12
7754;BME280;3921;42.266;23.122;2023-04-24T00:10:48;95280.72;;;12.68;58.11
7754;BME280;3921;42.266;23.122;2023-04-24T00:13:15;95254.06;;;12.54;58.85
7754;BME280;3921;42.266;23.122;2023-04-24T00:15:42;95174.50;;;11.91;58.52
7754;BME280;3921;42.266;23.122;2023-04-24T00:18:10;95402.28;;;13.35;58.44
7754;BME280;3921;42.266;23.122;2023-04-24T00:20:39;95252.72;;;12.33;58.49
7754;BME280;3921;42.266;23.122;2023-04-24T00:23:06;95381.59;;;13.15;58.93
7754;BME280;3921;42.266;23.122;2023-04-24T00:25:33;95457.28;;;13.66;59.11
7754;BME280;3921;42.266;23.122;2023-04-24T00:28:03;95096.47;;;11.35;58.66
7754;BME280;3921;42.266;23.122;2023-04-24T00:30:31;95172.72;;;11.98;58.66
7754;BME280;3921;42.266;23.122;2023-04-24T00:32:59;95345.88;;;12.91;58.98
7754;BME280;3921;42.266;23.122;2023-04-24T00:35:29;95380.47;;;13.33;59.09
7754;BME280;3921;42.266;23.122;2023-04-24T00:37:56;95355.63;;;13.10;59.22
7754;BME280;3921;42.266;23.122;2023-04-24T00:40:23;95291.50;;;12.75;59.10
7754;BME280;3921;42.266;23.122;2023-04-24T00:42:50;95166.63;;;12.09;59.29
7754;BME280;3921;42.266;23.122;2023-04-24T00:45:18;95408.91;;;13.42;58.93
7754;BME280;3921;42.266;23.122;2023-04-24T00:47:45;95342.38;;;12.98;59.29
7754;BME280;3921;42.266;23.122;2023-04-24T00:50:14;95090.44;;;11.49;59.46
7754;BME280;3921;42.266;23.122;2023-04-24T00:52:46;95048.28;;;11.09;58.96
7754;BME280;3921;42.266;23.122;2023-04-24T00:55:16;95415.44;;;13.52;58.96
7754;BME280;3921;42.266;23.122;2023-04-24T00:57:43;95141.06;;;11.84;59.49
7754;BME280;3921;42.266;23.122;2023-04-24T01:00:12;95382.09;;;13.35;60.47
7754;BME280;3921;42.266;23.122;2023-04-24T01:02:41;95292.28;;;12.80;60.60
7754;BME280;3921;42.266;23.122;2023-04-24T01:05:11;95251.38;;;12.64;60.89
7754;BME280;3921;42.266;23.122;2023-04-24T01:07:39;95087.69;;;11.62;60.65
7754;BME280;3921;42.266;23.122;2023-04-24T01:10:13;95431.09;;;13.71;61.19
7754;BME280;3921;42.266;23.122;2023-04-24T01:12:41;95360.50;;;13.19;61.56
7754;BME280;3921;42.266;23.122;2023-04-24T01:15:09;95261.44;;;12.64;61.83
7754;BME280;3921;42.266;23.122;2023-04-24T01:17:36;95187.63;;;12.11;62.13
7754;BME280;3921;42.266;23.122;2023-04-24T01:20:05;95430.50;;;13.57;62.10
7754;BME280;3921;42.266;23.122;2023-04-24T01:22:36;95291.44;;;12.80;61.95
7754;BME280;3921;42.266;23.122;2023-04-24T01:25:04;95362.44;;;13.05;62.62
7754;BME280;3921;42.266;23.122;2023-04-24T01:27:35;95407.19;;;13.44;62.75
7754;BME280;3921;42.266;23.122;2023-04-24T01:30:02;95286.69;;;12.63;62.55
7754;BME280;3921;42.266;23.122;2023-04-24T01:32:32;95329.13;;;12.87;62.79
7754;BME280;3921;42.266;23.122;2023-04-24T01:35:00;95097.25;;;11.40;62.96
7754;BME280;3921;42.266;23.122;2023-04-24T01:37:27;95324.19;;;12.81;63.05
7754;BME280;3921;42.266;23.122;2023-04-24T01:39:55;95472.53;;;13.60;62.93
7754;BME280;3921;42.266;23.122;2023-04-24T01:42:23;95278.38;;;12.58;62.86
7754;BME280;3921;42.266;23.122;2023-04-24T01:44:50;95163.16;;;11.62;63.30
7754;BME280;3921;42.266;23.122;2023-04-24T01:47:17;95063.25;;;11.16;63.31
7754;BME280;3921;42.266;23.122;2023-04-24T01:49:47;95237.06;;;12.17;63.26
7754;BME280;3921;42.266;23.122;2023-04-24T01:52:15;95266.66;;;12.54;63.77
7754;BME280;3921;42.266;23.122;2023-04-24T01:54:43;95337.63;;;12.82;63.72
7754;BME280;3921;42.266;23.122;2023-04-24T01:57:11;95157.84;;;11.81;64.00
7754;BME280;3921;42.266;23.122;2023-04-24T01:59:40;95188.75;;;11.92;64.49
7754;BME280;3921;42.266;23.122;2023-04-24T02:02:07;94945.28;;;10.50;64.88
7754;BME280;3921;42.266;23.122;2023-04-24T02:04:34;95304.28;;;12.64;64.97
7754;BME280;3921;42.266;23.122;2023-04-24T02:07:01;95241.78;;;12.35;65.38
7754;BME280;3921;42.266;23.122;2023-04-24T02:09:28;95013.47;;;10.84;66.07
7754;BME280;3921;42.266;23.122;2023-04-24T02:11:58;95282.78;;;12.45;66.60
7754;BME280;3921;42.266;23.122;2023-04-24T02:14:27;95254.84;;;12.57;66.83
7754;BME280;3921;42.266;23.122;2023-04-24T02:16:57;94938.63;;;10.46;67.07
7754;BME280;3921;42.266;23.122;2023-04-24T02:19:24;94895.41;;;10.24;67.04
7754;BME280;3921;42.266;23.122;2023-04-24T02:21:56;95149.28;;;11.92;67.16
7754;BME280;3921;42.266;23.122;2023-04-24T02:24:23;95313.03;;;12.93;66.31
7754;BME280;3921;42.266;23.122;2023-04-24T02:26:53;95283.06;;;12.77;67.03
7754;BME280;3921;42.266;23.122;2023-04-24T02:29:23;94830.63;;;9.88;66.93
7754;BME280;3921;42.266;23.122;2023-04-24T02:31:59;94915.41;;;10.30;67.80
7754;BME280;3921;42.266;23.122;2023-04-24T02:34:26;95400.50;;;13.40;68.15
7754;BME280;3921;42.266;23.122;2023-04-24T02:36:53;94971.81;;;10.68;68.33
7754;BME280;3921;42.266;23.122;2023-04-24T02:39:20;95214.94;;;12.33;68.66
7754;BME280;3921;42.266;23.122;2023-04-24T02:41:47;95196.03;;;12.10;68.80
7754;BME280;3921;42.266;23.122;2023-04-24T02:44:14;95095.41;;;11.53;68.27
7754;BME280;3921;42.266;23.122;2023-04-24T02:46:42;95333.16;;;12.96;68.33
7754;BME280;3921;42.266;23.122;2023-04-24T02:49:11;95285.88;;;12.61;68.20
7754;BME280;3921;42.266;23.122;2023-04-24T02:51:38;95334.91;;;12.92;68.69
7754;BME280;3921;42.266;23.122;2023-04-24T02:54:07;95395.91;;;13.13;68.76
7754;BME280;3921;42.266;23.122;2023-04-24T02:56:35;94927.16;;;10.28;68.88
7754;BME280;3921;42.266;23.122;2023-04-24T02:59:02;95376.63;;;13.10;68.94
7754;BME280;3921;42.266;23.122;2023-04-24T03:01:31;95235.22;;;12.25;69.20
7754;BME280;3921;42.266;23.122;2023-04-24T03:04:02;95356.88;;;12.86;69.60
7754;BME280;3921;42.266;23.122;2023-04-24T03:06:30;95331.88;;;12.72;69.46
7754;BME280;3921;42.266;23.122;2023-04-24T03:09:05;95202.00;;;12.05;69.32
7754;BME280;3921;42.266;23.122;2023-04-24T03:11:32;95211.97;;;12.11;69.07
7754;BME280;3921;42.266;23.122;2023-04-24T03:14:00;95311.72;;;12.73;68.85
7754;BME280;3921;42.266;23.122;2023-04-24T03:16:27;95246.84;;;12.32;69.04
7754;BME280;3921;42.266;23.122;2023-04-24T03:18:54;95142.97;;;11.67;69.06
7754;BME280;3921;42.266;23.122;2023-04-24T03:21:22;95148.97;;;11.58;68.84
7754;BME280;3921;42.266;23.122;2023-04-24T03:23:53;95199.59;;;11.99;68.17
7754;BME280;3921;42.266;23.122;2023-04-24T03:26:22;94819.25;;;9.62;68.66
7754;BME280;3921;42.266;23.122;2023-04-24T03:28:49;95023.41;;;10.89;69.30
7754;BME280;3921;42.266;23.122;2023-04-24T03:31:16;95114.03;;;11.41;69.03
7754;BME280;3921;42.266;23.122;2023-04-24T03:33:44;94904.69;;;10.18;69.05
7754;BME280;3921;42.266;23.122;2023-04-24T03:36:11;95295.06;;;12.63;69.30
7754;BME280;3921;42.266;23.122;2023-04-24T03:38:38;95047.53;;;11.02;69.64
7754;BME280;3921;42.266;23.122;2023-04-24T03:41:06;95079.16;;;11.19;68.96
7754;BME280;3921;42.266;23.122;2023-04-24T03:43:49;94953.03;;;10.33;68.23
7754;BME280;3921;42.266;23.122;2023-04-24T03:46:16;95029.31;;;10.88;68.76
7754;BME280;3921;42.266;23.122;2023-04-24T03:48:43;95367.53;;;13.01;68.21
7754;BME280;3921;42.266;23.122;2023-04-24T03:51:10;95289.56;;;12.41;68.76
7754;BME280;3921;42.266;23.122;2023-04-24T03:53:37;95290.97;;;12.58;69.00
7754;BME280;3921;42.266;23.122;2023-04-24T03:56:06;95048.25;;;11.10;69.31
7754;BME280;3921;42.266;23.122;2023-04-24T03:58:32;95219.56;;;12.08;68.81
7754;BME280;3921;42.266;23.122;2023-04-24T04:00:59;95078.41;;;11.13;68.68
7754;BME280;3921;42.266;23.122;2023-04-24T04:03:26;95255.13;;;12.40;69.25
7754;BME280;3921;42.266;23.122;2023-04-24T04:05:54;95261.16;;;12.33;69.20
7754;BME280;3921;42.266;23.122;2023-04-24T04:08:21;94938.03;;;10.29;68.92
7754;BME280;3921;42.266;23.122;2023-04-24T04:10:48;95378.47;;;13.02;68.93
7754;BME280;3921;42.266;23.122;2023-04-24T04:13:16;94958.66;;;10.49;68.96
7754;BME280;3921;42.266;23.122;2023-04-24T04:15:43;94892.31;;;10.04;69.51
7754;BME280;3921;42.266;23.122;2023-04-24T04:18:10;94865.81;;;9.83;69.92
7754;BME280;3921;42.266;23.122;2023-04-24T04:20:37;95074.94;;;11.21;70.17
7754;BME280;3921;42.266;23.122;2023-04-24T04:23:04;95130.97;;;11.29;69.76
7754;BME280;3921;42.266;23.122;2023-04-24T04:25:31;95239.66;;;12.11;70.00
7754;BME280;3921;42.266;23.122;2023-04-24T04:27:58;94970.53;;;10.40;69.73
7754;BME280;3921;42.266;23.122;2023-04-24T04:30:27;95294.56;;;12.43;69.72
7754;BME280;3921;42.266;23.122;2023-04-24T04:32:57;95298.84;;;12.39;69.65
7754;BME280;3921;42.266;23.122;2023-04-24T04:35:24;95084.22;;;11.15;69.80
7754;BME280;3921;42.266;23.122;2023-04-24T04:37:51;95179.75;;;11.77;70.03
7754;BME280;3921;42.266;23.122;2023-04-24T04:40:18;95061.22;;;10.83;70.21
7754;BME280;3921;42.266;23.122;2023-04-24T04:42:46;95252.16;;;12.15;70.35
7754;BME280;3921;42.266;23.122;2023-04-24T04:48:30;95316.22;;;12.55;70.47
7754;BME280;3921;42.266;23.122;2023-04-24T04:50:58;95133.28;;;11.42;69.88
7754;BME280;3921;42.266;23.122;2023-04-24T04:53:26;94781.19;;;9.32;70.01
7754;BME280;3921;42.266;23.122;2023-04-24T04:55:54;94969.84;;;10.28;69.79
7754;BME280;3921;42.266;23.122;2023-04-24T04:58:22;95194.88;;;11.76;70.14
7754;BME280;3921;42.266;23.122;2023-04-24T05:00:52;94801.97;;;9.39;70.31
7754;BME280;3921;42.266;23.122;2023-04-24T05:03:28;94903.28;;;9.95;70.59
7754;BME280;3921;42.266;23.122;2023-04-24T05:06:11;95076.19;;;10.89;70.57
7754;BME280;3921;42.266;23.122;2023-04-24T05:08:39;95157.66;;;11.39;70.91
7754;BME280;3921;42.266;23.122;2023-04-24T05:11:16;95275.53;;;12.25;70.87
7754;BME280;3921;42.266;23.122;2023-04-24T05:14:13;94854.22;;;9.73;70.46
7754;BME280;3921;42.266;23.122;2023-04-24T05:16:40;95258.00;;;12.19;70.88
7754;BME280;3921;42.266;23.122;2023-04-24T05:19:08;95082.59;;;11.13;70.45
7754;BME280;3921;42.266;23.122;2023-04-24T05:21:36;95044.59;;;10.74;70.55
7754;BME280;3921;42.266;23.122;2023-04-24T05:24:05;95282.06;;;12.37;70.46
7754;BME280;3921;42.266;23.122;2023-04-24T05:26:32;94904.03;;;10.02;70.51
7754;BME280;3921;42.266;23.122;2023-04-24T05:29:01;95156.53;;;11.57;70.29
7754;BME280;3921;42.266;23.122;2023-04-24T05:31:28;95325.25;;;12.66;70.12
7754;BME280;3921;42.266;23.122;2023-04-24T05:33:55;95321.97;;;12.61;69.66
7754;BME280;3921;42.266;23.122;2023-04-24T05:36:22;95174.03;;;11.66;69.43
7754;BME280;3921;42.266;23.122;2023-04-24T05:38:50;95255.44;;;12.22;69.30
7754;BME280;3921;42.266;23.122;2023-04-24T05:41:17;95052.56;;;11.01;70.12
7754;BME280;3921;42.266;23.122;2023-04-24T05:43:44;95169.69;;;11.74;70.54
7754;BME280;3921;42.266;23.122;2023-04-24T05:46:12;95315.16;;;12.68;70.03
7754;BME280;3921;42.266;23.122;2023-04-24T05:48:39;95067.34;;;11.22;70.02
7754;BME280;3921;42.266;23.122;2023-04-24T05:51:06;95102.44;;;11.31;69.82
7754;BME280;3921;42.266;23.122;2023-04-24T05:53:36;95088.34;;;11.18;69.96
7754;BME280;3921;42.266;23.122;2023-04-24T05:56:10;95125.69;;;11.46;69.49
7754;BME280;3921;42.266;23.122;2023-04-24T05:58:40;94833.31;;;9.75;69.22
7754;BME280;3921;42.266;23.122;2023-04-24T06:01:07;95290.06;;;12.60;69.21
7754;BME280;3921;42.266;23.122;2023-04-24T06:03:34;95355.63;;;13.10;70.09
7754;BME280;3921;42.266;23.122;2023-04-24T06:06:02;95133.69;;;11.69;69.94
7754;BME280;3921;42.266;23.122;2023-04-24T06:08:34;95316.69;;;12.76;69.83
7754;BME280;3921;42.266;23.122;2023-04-24T06:11:01;95244.31;;;12.35;69.59
7754;BME280;3921;42.266;23.122;2023-04-24T06:13:29;95362.44;;;13.05;69.79
7754;BME280;3921;42.266;23.122;2023-04-24T06:15:56;95110.41;;;11.59;69.08
7754;BME280;3921;42.266;23.122;2023-04-24T06:18:24;95264.03;;;12.60;68.99
7754;BME280;3921;42.266;23.122;2023-04-24T06:20:51;95336.50;;;12.98;68.27
7754;BME280;3921;42.266;23.122;2023-04-24T06:23:18;95138.50;;;11.87;67.62
7754;BME280;3921;42.266;23.122;2023-04-24T06:25:45;94956.47;;;10.83;67.66
7754;BME280;3921;42.266;23.122;2023-04-24T06:28:12;95235.56;;;12.56;67.96
7754;BME280;3921;42.266;23.122;2023-04-24T06:30:41;95129.13;;;11.95;67.85
7754;BME280;3921;42.266;23.122;2023-04-24T06:33:08;95125.63;;;12.03;67.45
7754;BME280;3921;42.266;23.122;2023-04-24T06:35:36;95207.88;;;12.53;66.85
7754;BME280;3921;42.266;23.122;2023-04-24T06:38:03;95379.63;;;13.77;66.66
7754;BME280;3921;42.266;23.122;2023-04-24T06:40:41;94845.53;;;10.57;66.38
7754;BME280;3921;42.266;23.122;2023-04-24T06:43:08;95385.34;;;13.85;67.05
7754;BME280;3921;42.266;23.122;2023-04-24T06:45:36;95212.97;;;12.96;67.25
7754;BME280;3921;42.266;23.122;2023-04-24T06:48:05;95272.19;;;13.20;67.04
7754;BME280;3921;42.266;23.122;2023-04-24T06:50:32;95185.78;;;12.67;67.33
7754;BME280;3921;42.266;23.122;2023-04-24T06:52:59;95138.06;;;12.58;67.06
7754;BME280;3921;42.266;23.122;2023-04-24T06:55:26;95258.44;;;13.35;68.04
7754;BME280;3921;42.266;23.122;2023-04-24T06:57:54;95007.56;;;11.89;67.71
7754;BME280;3921;42.266;23.122;2023-04-24T07:00:21;95257.41;;;13.45;67.40
7754;BME280;3921;42.266;23.122;2023-04-24T07:02:49;94906.19;;;11.36;67.60
7754;BME280;3921;42.266;23.122;2023-04-24T07:05:18;95228.69;;;13.51;67.06
7754;BME280;3921;42.266;23.122;2023-04-24T07:07:46;95262.69;;;13.73;67.19
7754;BME280;3921;42.266;23.122;2023-04-24T07:10:14;95290.53;;;13.72;66.35
7754;BME280;3921;42.266;23.122;2023-04-24T07:12:41;95097.53;;;12.69;66.21
7754;BME280;3921;42.266;23.122;2023-04-24T07:15:09;94985.94;;;12.22;66.10
7754;BME280;3921;42.266;23.122;2023-04-24T07:17:37;94885.50;;;11.65;66.41
7754;BME280;3921;42.266;23.122;2023-04-24T07:20:09;95035.59;;;12.57;66.09
7754;BME280;3921;42.266;23.122;2023-04-24T07:22:38;95371.16;;;14.58;66.02
7754;BME280;3921;42.266;23.122;2023-04-24T07:25:06;94914.34;;;11.93;65.20
7754;BME280;3921;42.266;23.122;2023-04-24T07:27:34;95050.03;;;12.89;65.47
7754;BME280;3921;42.266;23.122;2023-04-24T07:30:01;95301.25;;;14.56;64.72
7754;BME280;3921;42.266;23.122;2023-04-24T07:32:29;95011.59;;;12.80;64.51
7754;BME280;3921;42.266;23.122;2023-04-24T07:35:06;95268.53;;;14.50;64.01
7754;BME280;3921;42.266;23.122;2023-04-24T07:37:35;94811.63;;;11.67;63.29
7754;BME280;3921;42.266;23.122;2023-04-24T07:40:04;95330.59;;;14.96;62.66
7754;BME280;3921;42.266;23.122;2023-04-24T07:42:31;95280.59;;;14.74;63.09
7754;BME280;3921;42.266;23.122;2023-04-24T07:45:00;94825.63;;;12.19;63.40
7754;BME280;3921;42.266;23.122;2023-04-24T07:47:27;95257.00;;;14.74;61.70
7754;BME280;3921;42.266;23.122;2023-04-24T07:49:54;95299.31;;;15.00;61.04
7754;BME280;3921;42.266;23.122;2023-04-24T07:52:21;95133.06;;;14.08;60.60
7754;BME280;3921;42.266;23.122;2023-04-24T07:54:48;95132.75;;;14.21;58.53
7754;BME280;3921;42.266;23.122;2023-04-24T07:57:16;95043.66;;;13.81;57.97
7754;BME280;3921;42.266;23.122;2023-04-24T07:59:43;95188.78;;;14.71;57.52
7754;BME280;3921;42.266;23.122;2023-04-24T08:02:10;95177.38;;;14.56;57.53
7754;BME280;3921;42.266;23.122;2023-04-24T08:04:37;94903.47;;;13.01;56.82
7754;BME280;3921;42.266;23.122;2023-04-24T08:07:05;95194.00;;;14.96;56.36
7754;BME280;3921;42.266;23.122;2023-04-24T08:09:32;94926.59;;;13.19;55.88
7754;BME280;3921;42.266;23.122;2023-04-24T08:11:59;95221.94;;;15.22;55.92
7754;BME280;3921;42.266;23.122;2023-04-24T08:14:29;95022.78;;;14.07;56.15
7754;BME280;3921;42.266;23.122;2023-04-24T08:16:56;95159.34;;;14.99;54.98
7754;BME280;3921;42.266;23.122;2023-04-24T08:19:25;95315.16;;;15.98;55.47
7754;BME280;3921;42.266;23.122;2023-04-24T08:21:52;95098.16;;;14.86;55.21
7754;BME280;3921;42.266;23.122;2023-04-24T08:24:22;95279.13;;;15.88;54.26
7754;BME280;3921;42.266;23.122;2023-04-24T08:26:49;95195.44;;;15.63;53.88
7754;BME280;3921;42.266;23.122;2023-04-24T08:29:16;95221.97;;;15.80;54.27
7754;BME280;3921;42.266;23.122;2023-04-24T08:31:45;95205.84;;;15.82;55.06
7754;BME280;3921;42.266;23.122;2023-04-24T08:34:12;95157.50;;;15.62;55.17
7754;BME280;3921;42.266;23.122;2023-04-24T08:36:39;95145.06;;;15.54;54.04
7754;BME280;3921;42.266;23.122;2023-04-24T08:39:07;95169.75;;;15.76;54.07
7754;BME280;3921;42.266;23.122;2023-04-24T08:41:34;95120.56;;;15.55;53.15
7754;BME280;3921;42.266;23.122;2023-04-24T08:44:03;95259.63;;;16.45;53.48
7754;BME280;3921;42.266;23.122;2023-04-24T08:46:30;95180.72;;;16.03;52.72
7754;BME280;3921;42.266;23.122;2023-04-24T08:48:59;95015.72;;;15.07;51.75
7754;BME280;3921;42.266;23.122;2023-04-24T08:51:27;94706.38;;;13.17;51.54
7754;BME280;3921;42.266;23.122;2023-04-24T08:53:55;94941.41;;;14.83;50.87
7754;BME280;3921;42.266;23.122;2023-04-24T08:56:24;94996.06;;;15.16;49.72
7754;BME280;3921;42.266;23.122;2023-04-24T08:58:54;95001.84;;;15.19;49.45
7754;BME280;3921;42.266;23.122;2023-04-24T09:01:22;95162.16;;;16.29;49.65
7754;BME280;3921;42.266;23.122;2023-04-24T09:03:53;95166.69;;;16.44;49.27
7754;BME280;3921;42.266;23.122;2023-04-24T09:06:23;95006.78;;;15.50;48.18
7754;BME280;3921;42.266;23.122;2023-04-24T09:08:52;94825.25;;;14.24;47.08
7754;BME280;3921;42.266;23.122;2023-04-24T09:11:21;95174.59;;;16.60;46.71
7754;BME280;3921;42.266;23.122;2023-04-24T09:13:49;94858.78;;;14.84;46.48
7754;BME280;3921;42.266;23.122;2023-04-24T09:16:27;94956.63;;;15.35;46.79
7754;BME280;3921;42.266;23.122;2023-04-24T09:18:55;94811.06;;;14.48;44.86
7754;BME280;3921;42.266;23.122;2023-04-24T09:21:31;95232.34;;;17.27;43.70
7754;BME280;3921;42.266;23.122;2023-04-24T09:24:00;95229.63;;;17.31;44.68
7754;BME280;3921;42.266;23.122;2023-04-24T09:26:29;95108.97;;;16.51;44.82
7754;BME280;3921;42.266;23.122;2023-04-24T09:28:59;95219.88;;;17.20;44.57
7754;BME280;3921;42.266;23.122;2023-04-24T09:31:27;94972.28;;;15.73;44.64
7754;BME280;3921;42.266;23.122;2023-04-24T09:33:57;95034.88;;;16.42;44.49
7754;BME280;3921;42.266;23.122;2023-04-24T09:36:29;95077.03;;;16.68;43.62
7754;BME280;3921;42.266;23.122;2023-04-24T09:38:59;95154.41;;;17.29;44.23
7754;BME280;3921;42.266;23.122;2023-04-24T09:41:27;94989.03;;;16.25;44.20
7754;BME280;3921;42.266;23.122;2023-04-24T09:43:55;95179.84;;;17.49;44.31
7754;BME280;3921;42.266;23.122;2023-04-24T09:46:29;95190.97;;;17.46;43.37
7754;BME280;3921;42.266;23.122;2023-04-24T09:48:56;95060.25;;;16.89;42.39
7754;BME280;3921;42.266;23.122;2023-04-24T09:51:34;95141.13;;;17.44;42.65
7754;BME280;3921;42.266;23.122;2023-04-24T09:54:03;94824.66;;;15.46;40.75
7754;BME280;3921;42.266;23.122;2023-04-24T09:56:34;95192.59;;;17.93;40.01
7754;BME280;3921;42.266;23.122;2023-04-24T09:59:05;95054.31;;;17.34;40.38
7754;BME280;3921;42.266;23.122;2023-04-24T10:01:33;95158.81;;;18.11;38.92
7754;BME280;3921;42.266;23.122;2023-04-24T10:04:00;94926.25;;;16.77;39.42
7754;BME280;3921;42.266;23.122;2023-04-24T10:06:34;94937.63;;;16.89;38.07
7754;BME280;3921;42.266;23.122;2023-04-24T10:09:24;95194.44;;;18.52;39.01
7754;BME280;3921;42.266;23.122;2023-04-24T10:11:52;95188.09;;;18.62;39.09
7754;BME280;3921;42.266;23.122;2023-04-24T10:14:21;94946.78;;;17.15;39.72
7754;BME280;3921;42.266;23.122;2023-04-24T10:16:49;95065.00;;;18.25;39.93
7754;BME280;3921;42.266;23.122;2023-04-24T10:19:17;95027.31;;;18.15;40.10
7754;BME280;3921;42.266;23.122;2023-04-24T10:21:47;95086.31;;;18.62;40.49
7754;BME280;3921;42.266;23.122;2023-04-24T10:24:15;95060.66;;;18.48;40.83
7754;BME280;3921;42.266;23.122;2023-04-24T10:26:43;95146.72;;;19.35;39.97
7754;BME280;3921;42.266;23.122;2023-04-24T10:29:11;94801.78;;;17.41;39.53
7754;BME280;3921;42.266;23.122;2023-04-24T10:31:38;95102.72;;;19.32;39.95
7754;BME280;3921;42.266;23.122;2023-04-24T10:34:06;94784.22;;;17.56;39.63
7754;BME280;3921;42.266;23.122;2023-04-24T10:36:34;95072.59;;;19.23;39.54
7754;BME280;3921;42.266;23.122;2023-04-24T10:39:06;94730.41;;;17.47;38.74
7754;BME280;3921;42.266;23.122;2023-04-24T10:41:37;94802.03;;;17.93;39.03
7754;BME280;3921;42.266;23.122;2023-04-24T10:44:05;94822.09;;;18.18;38.87
7754;BME280;3921;42.266;23.122;2023-04-24T10:46:32;94897.19;;;18.62;39.17
7754;BME280;3921;42.266;23.122;2023-04-24T10:49:03;95062.63;;;19.72;38.36
7754;BME280;3921;42.266;23.122;2023-04-24T10:51:47;95153.19;;;20.32;39.15
7754;BME280;3921;42.266;23.122;2023-04-24T10:54:26;95096.03;;;19.84;39.31
7754;BME280;3921;42.266;23.122;2023-04-24T10:57:26;95142.16;;;20.14;39.70
7754;BME280;3921;42.266;23.122;2023-04-24T11:00:15;95148.81;;;20.17;39.45
7754;BME280;3921;42.266;23.122;2023-04-24T11:02:46;95020.88;;;19.21;39.46
7754;BME280;3921;42.266;23.122;2023-04-24T11:05:16;94982.16;;;19.14;39.35
7754;BME280;3921;42.266;23.122;2023-04-24T11:08:09;95145.00;;;20.26;39.19
7754;BME280;3921;42.266;23.122;2023-04-24T11:10:40;95075.63;;;19.84;39.54
7754;BME280;3921;42.266;23.122;2023-04-24T11:13:07;94995.50;;;19.36;37.96
7754;BME280;3921;42.266;23.122;2023-04-24T11:15:35;95044.28;;;19.82;38.43
7754;BME280;3921;42.266;23.122;2023-04-24T11:18:02;94702.66;;;17.81;38.59
7754;BME280;3921;42.266;23.122;2023-04-24T11:20:29;95075.47;;;19.87;38.01
7754;BME280;3921;42.266;23.122;2023-04-24T11:23:03;95133.81;;;20.28;38.36
7754;BME280;3921;42.266;23.122;2023-04-24T11:25:32;95046.75;;;19.84;38.73
7754;BME280;3921;42.266;23.122;2023-04-24T11:28:06;95043.00;;;19.91;38.21
7754;BME280;3921;42.266;23.122;2023-04-24T11:30:34;94953.41;;;19.47;37.81
7754;BME280;3921;42.266;23.122;2023-04-24T11:33:04;95076.97;;;20.26;37.73
7754;BME280;3921;42.266;23.122;2023-04-24T11:35:39;95003.19;;;19.71;38.03
7754;BME280;3921;42.266;23.122;2023-04-24T11:38:06;94680.28;;;17.51;38.52
7754;BME280;3921;42.266;23.122;2023-04-24T11:40:34;95010.63;;;19.58;38.29
7754;BME280;3921;42.266;23.122;2023-04-24T11:43:01;95014.13;;;19.56;38.44
7754;BME280;3921;42.266;23.122;2023-04-24T11:45:32;94978.16;;;19.45;38.36
7754;BME280;3921;42.266;23.122;2023-04-24T11:47:59;94913.56;;;19.11;38.59
7754;BME280;3921;42.266;23.122;2023-04-24T11:50:27;94685.25;;;17.71;38.59
7754;BME280;3921;42.266;23.122;2023-04-24T11:52:55;94985.81;;;19.62;38.55
7754;BME280;3921;42.266;23.122;2023-04-24T11:55:24;95027.47;;;19.61;38.40
7754;BME280;3921;42.266;23.122;2023-04-24T11:57:54;94948.56;;;19.59;38.49
7754;BME280;3921;42.266;23.122;2023-04-24T12:00:23;94854.81;;;19.14;38.25
7754;BME280;3921;42.266;23.122;2023-04-24T12:03:05;94695.69;;;18.20;38.92
7754;BME280;3921;42.266;23.122;2023-04-24T12:05:32;95009.53;;;20.14;39.21
7754;BME280;3921;42.266;23.122;2023-04-24T12:08:00;94876.19;;;19.29;38.61
7754;BME280;3921;42.266;23.122;2023-04-24T12:10:28;94875.25;;;19.47;38.41
7754;BME280;3921;42.266;23.122;2023-04-24T12:12:56;94944.59;;;20.04;38.30
7754;BME280;3921;42.266;23.122;2023-04-24T12:15:27;94968.31;;;20.22;38.43
7754;BME280;3921;42.266;23.122;2023-04-24T12:17:56;94572.47;;;17.93;38.27
7754;BME280;3921;42.266;23.122;2023-04-24T12:20:24;94601.84;;;18.33;37.68
7754;BME280;3921;42.266;23.122;2023-04-24T12:22:54;95020.53;;;21.13;37.90
7754;BME280;3921;42.266;23.122;2023-04-24T12:25:24;94617.97;;;18.49;37.80
7754;BME280;3921;42.266;23.122;2023-04-24T12:27:57;94586.03;;;18.44;37.14
7754;BME280;3921;42.266;23.122;2023-04-24T12:30:42;94746.91;;;19.50;37.78
7754;BME280;3921;42.266;23.122;2023-04-24T12:33:17;94592.69;;;18.79;37.03
7754;BME280;3921;42.266;23.122;2023-04-24T12:35:48;94704.78;;;19.43;37.21
7754;BME280;3921;42.266;23.122;2023-04-24T12:38:16;94947.31;;;21.28;36.62
7754;BME280;3921;42.266;23.122;2023-04-24T12:40:46;94928.13;;;21.36;35.87
7754;BME280;3921;42.266;23.122;2023-04-24T12:43:14;94532.59;;;19.08;35.99
7754;BME280;3921;42.266;23.122;2023-04-24T12:45:42;94515.69;;;19.07;36.27
7754;BME280;3921;42.266;23.122;2023-04-24T12:48:11;94900.13;;;21.49;35.65
7754;BME280;3921;42.266;23.122;2023-04-24T12:50:44;94934.81;;;21.53;35.48
7754;BME280;3921;42.266;23.122;2023-04-24T12:53:11;94906.41;;;21.43;35.25
7754;BME280;3921;42.266;23.122;2023-04-24T12:55:38;94831.72;;;20.94;34.97
7754;BME280;3921;42.266;23.122;2023-04-24T12:58:13;94886.44;;;21.20;35.38
7754;BME280;3921;42.266;23.122;2023-04-24T13:00:40;94889.44;;;21.27;35.48
7754;BME280;3921;42.266;23.122;2023-04-24T13:03:08;94753.69;;;20.44;35.06
7754;BME280;3921;42.266;23.122;2023-04-24T13:05:37;94840.84;;;20.98;34.81
7754;BME280;3921;42.266;23.122;2023-04-24T13:08:04;94788.97;;;20.67;34.49
7754;BME280;3921;42.266;23.122;2023-04-24T13:10:31;94901.59;;;21.23;34.75
7754;BME280;3921;42.266;23.122;2023-04-24T13:12:59;94874.47;;;21.20;35.33
7754;BME280;3921;42.266;23.122;2023-04-24T13:15:26;94883.16;;;21.18;34.79
7754;BME280;3921;42.266;23.122;2023-04-24T13:17:54;94662.44;;;19.73;35.09
7754;BME280;3921;42.266;23.122;2023-04-24T13:20:23;94823.38;;;20.76;35.40
7754;BME280;3921;42.266;23.122;2023-04-24T13:22:53;94876.19;;;21.06;35.24
7754;BME280;3921;42.266;23.122;2023-04-24T13:25:20;94809.84;;;20.60;35.33